KOLE/OLE METAR and TAF weather

Enter ICAO airport designator
Station Type Date Time Source
KOLE METAR 2019/10/23 06:55 UTC NOAA

KOLE 230655Z AUTO 24003KT 10SM CLR 06/04 A2983 RMK AO2


Station Type Date Time Source
KOLE Decoded METAR 2019/10/23 06:55 UTC NOAA

Olean Municipal, NY, United States (KOLE) 42-14N 078-22W
Oct 23, 2019 - 02:55 AM EDT / 2019.10.23 0655 UTC
Wind: from the WSW (240 degrees) at 3 MPH (3 KT):0
Visibility: 10 mile(s):0
Sky conditions: clear
Temperature: 42 F (6 C)
Dew Point: 39 F (4 C)
Relative Humidity: 86%
Pressure (altimeter): 29.83 in. Hg (1010 hPa)
ob: KOLE 230655Z AUTO 24003KT 10SM CLR 06/04 A2983 RMK AO2
cycle: 7

Station Type Date Time Source
KOLE TAF UTC NOAA

Error!

Example: see airport list